Portada
METAR-TAF:

METAR-TAF

Aeroports :

Ambon, Indonèsia

latitud: 03-42S, longitud: 128-05E, altitud: 12 m

Observació

L'informe es va fer fa 12 hores i 17 minuts, a les 10:00 UTC
Vent 1 kt amb direcció variable
Temperatura 25°C
Humitat 94%
Pressió 1009 hPa
Visibilitat: 9000 m
Cel ennuvolat a una alçada de 1600 ft

METAR: WAPP 101000Z VRB01KT 9000 BKN016 25/24 Q1009 RERA NOSIG

Hora: 07:17 (22:17 UTC)

Pronòstic

L'informe es va fer fa 5 hores i 17 minuts, a les 17:00 UTC
Pronòstic vàlid del 10 a les 18 UTC al 11 a les 18 UTC
Vent 7 kt del Nord/Nord-Oest
Visibilitat: 9000 m
Núvols disperses a una alçada de 1800 ft

TAF: WAPP 101700Z 1018/1118 34007KT 9000 SCT018

Observacions i pronòstics meteorològics de més de 4000 aeroports (METAR i TAF).

Les estacions disponibles són els punts grocs i vermells al mapa.

Posi el ratolí al punt desitjat per veure el nom de l'estació.

Feu clic per veure les observacions i els pronòstics meteorològics.

Per canviar el mapa: feu clic els botons verds amb una creu de color negre per apropar; al botó verd amb un guió per allunyar la imatge; o en les fletxes verdes per a mapes adjacents.


METAR-TAF: